Time;durP1;ratioP1;P1;durP2;ratioP2;P2;SDS_P1;SDS_P2;PMS_P1;PMS_P2;Temp;Humidity;BMP_temperature;BMP_pressure;BME280_temperature;BME280_humidity;BME280_pressure;Samples;Min_cycle;Max_cycle;Signal;HPM_P1;HPM_P2
2024/01/15 00:00:45;;;;;;;2.10;1.35;;;21.30;44.00;;;;;;5102130;28;20121;-32
2024/01/15 00:03:11;;;;;;;2.08;1.50;;;21.30;44.10;;;;;;5106530;28;20072;-33
2024/01/15 00:05:37;;;;;;;2.53;1.50;;;21.40;44.10;;;;;;5107562;28;20027;-34
2024/01/15 00:08:03;;;;;;;3.25;1.20;;;21.40;43.70;;;;;;5105660;28;20136;-33
2024/01/15 00:10:29;;;;;;;1.67;1.30;;;21.50;43.80;;;;;;5110549;27;20440;-35
2024/01/15 00:12:56;;;;;;;2.25;1.42;;;21.40;43.90;;;;;;5113203;27;20043;-34
2024/01/15 00:15:22;;;;;;;3.13;1.40;;;21.40;43.80;;;;;;5115630;28;20032;-37
2024/01/15 00:17:48;;;;;;;2.78;1.58;;;21.40;43.80;;;;;;5116032;28;20028;-34
2024/01/15 00:20:14;;;;;;;1.80;1.10;;;21.40;43.70;;;;;;5115175;28;20031;-36
2024/01/15 00:22:40;;;;;;;2.15;1.23;;;21.50;43.60;;;;;;5117959;28;20134;-34
2024/01/15 00:25:06;;;;;;;1.85;1.20;;;21.50;43.50;;;;;;5117025;28;20051;-34
2024/01/15 00:27:33;;;;;;;1.92;1.17;;;21.50;43.50;;;;;;5120276;28;20043;-36
2024/01/15 00:29:59;;;;;;;2.20;1.27;;;21.50;43.60;;;;;;5113980;28;20027;-36
2024/01/15 00:32:25;;;;;;;1.88;1.27;;;21.50;43.60;;;;;;5118554;28;20028;-36
2024/01/15 00:34:51;;;;;;;1.95;1.10;;;21.50;43.60;;;;;;5118897;28;20104;-35
2024/01/15 00:37:17;;;;;;;1.50;1.30;;;21.50;43.50;;;;;;5114665;28;20023;-34
2024/01/15 00:39:43;;;;;;;2.17;1.50;;;21.50;43.40;;;;;;5119574;28;20039;-36
2024/01/15 00:42:09;;;;;;;1.48;1.27;;;21.60;43.40;;;;;;5117530;28;20047;-32
2024/01/15 00:44:35;;;;;;;1.80;1.10;;;21.50;43.30;;;;;;5116239;28;20030;-36
2024/01/15 00:47:02;;;;;;;1.95;1.10;;;21.50;43.40;;;;;;5116262;28;20070;-31
2024/01/15 00:49:28;;;;;;;1.70;1.00;;;21.50;43.40;;;;;;5112238;28;20027;-36
2024/01/15 00:51:54;;;;;;;1.45;0.98;;;21.50;43.30;;;;;;5115781;27;20028;-33
2024/01/15 00:54:20;;;;;;;1.80;0.85;;;21.50;43.30;;;;;;5114124;28;20028;-36
2024/01/15 00:56:46;;;;;;;1.30;1.00;;;21.60;43.30;;;;;;5115126;28;20088;-32
2024/01/15 00:59:14;;;;;;;1.70;1.10;;;21.60;43.30;;;;;;5114986;28;20039;-32
2024/01/15 01:01:42;;;;;;;1.30;0.93;;;21.60;43.40;;;;;;5114693;27;20100;-33
2024/01/15 01:04:10;;;;;;;1.67;1.10;;;21.60;43.50;;;;;;5115046;27;20035;-32
2024/01/15 01:06:36;;;;;;;1.63;1.30;;;21.50;43.60;;;;;;5114747;28;20119;-31
2024/01/15 01:09:03;;;;;;;1.63;1.02;;;21.60;43.50;;;;;;5113877;28;20028;-34
2024/01/15 01:11:29;;;;;;;1.40;0.98;;;21.60;43.30;;;;;;5114148;28;20092;-36
2024/01/15 01:13:56;;;;;;;0.90;0.70;;;21.60;43.30;;;;;;5109548;28;20032;-32
2024/01/15 01:16:23;;;;;;;1.02;0.90;;;21.60;43.30;;;;;;5108899;28;20392;-37
2024/01/15 01:18:50;;;;;;;1.55;0.75;;;21.60;43.40;;;;;;5108202;28;20039;-35
2024/01/15 01:21:17;;;;;;;1.30;0.90;;;21.60;43.40;;;;;;5111211;28;20040;-33
2024/01/15 01:23:44;;;;;;;1.58;1.10;;;21.60;43.50;;;;;;5111946;28;20036;-37
2024/01/15 01:26:11;;;;;;;1.30;0.82;;;21.60;43.40;;;;;;5111728;28;20040;-34
2024/01/15 01:28:38;;;;;;;1.27;0.82;;;21.70;43.20;;;;;;5114571;28;20047;-35
2024/01/15 01:31:04;;;;;;;1.08;0.82;;;21.70;43.20;;;;;;5113140;28;20043;-32
2024/01/15 01:33:31;;;;;;;1.70;1.05;;;21.60;43.10;;;;;;5113163;28;20087;-33
2024/01/15 01:35:58;;;;;;;1.20;0.80;;;21.60;43.20;;;;;;5112844;28;20766;-36
2024/01/15 01:38:25;;;;;;;1.75;0.98;;;21.60;43.20;;;;;;5113657;28;20057;-34
2024/01/15 01:40:51;;;;;;;;;;;21.60;43.30;;;;;;5097764;28;20167;-33
2024/01/15 01:43:20;;;;;;;1.85;0.90;;;21.70;43.20;;;;;;5107585;28;19908;-35
2024/01/15 01:45:47;;;;;;;0.82;0.63;;;21.70;43.10;;;;;;5117040;28;20023;-36
2024/01/15 01:48:15;;;;;;;1.35;0.70;;;21.70;43.30;;;;;;5149277;27;20083;-34
2024/01/15 01:50:42;;;;;;;1.35;0.98;;;21.60;43.30;;;;;;5118992;28;20039;-33
2024/01/15 01:53:09;;;;;;;1.40;0.77;;;21.60;43.30;;;;;;5110438;28;20084;-36
2024/01/15 01:55:37;;;;;;;;;;;21.70;43.30;;;;;;5113990;28;20038;-36
2024/01/15 01:58:07;;;;;;;0.73;0.52;;;21.70;43.20;;;;;;5111010;28;19915;-33
2024/01/15 02:00:35;;;;;;;1.23;0.90;;;21.70;43.20;;;;;;5113451;28;20040;-34
2024/01/15 02:03:03;;;;;;;1.08;0.63;;;21.70;43.20;;;;;;5111701;28;20066;-36
2024/01/15 02:05:30;;;;;;;1.73;0.80;;;21.70;43.30;;;;;;5112536;28;20100;-32
2024/01/15 02:07:59;;;;;;;;;;;21.70;43.30;;;;;;5112305;28;20106;-34
2024/01/15 02:10:27;;;;;;;1.17;0.80;;;21.60;43.20;;;;;;5113840;28;20730;-32
2024/01/15 02:12:55;;;;;;;1.95;0.70;;;21.70;43.10;;;;;;5113573;28;20044;-34
2024/01/15 02:15:22;;;;;;;1.38;0.90;;;21.70;43.10;;;;;;5113338;28;20043;-33
2024/01/15 02:17:59;;;;;;;;;;;21.70;43.10;;;;;;5113644;28;20059;-33
2024/01/15 02:20:26;;;;;;;2.13;0.82;;;21.70;43.20;;;;;;5113134;28;19922;-35
2024/01/15 02:22:53;;;;;;;;;;;21.70;43.20;;;;;;5115072;28;20031;-34
2024/01/15 02:25:20;;;;;;;2.40;0.82;;;21.70;43.20;;;;;;5115111;28;19912;-35
2024/01/15 02:27:47;;;;;;;1.80;0.70;;;21.70;43.10;;;;;;5106643;28;20052;-35
2024/01/15 02:30:15;;;;;;;1.48;0.73;;;21.70;43.10;;;;;;5117539;28;20050;-35
2024/01/15 02:32:41;;;;;;;;;;;21.70;43.10;;;;;;5106657;28;20035;-36
2024/01/15 02:35:09;;;;;;;2.03;0.90;;;21.70;43.20;;;;;;5112970;28;19919;-30
2024/01/15 02:37:37;;;;;;;0.80;0.63;;;21.70;43.20;;;;;;5116573;28;20049;-34
2024/01/15 02:40:07;;;;;;;1.17;0.60;;;21.70;43.20;;;;;;5105385;28;20028;-35
2024/01/15 02:42:34;;;;;;;1.70;0.90;;;21.70;43.10;;;;;;5107960;28;20028;-34
2024/01/15 02:45:03;;;;;;;0.98;0.60;;;21.70;43.10;;;;;;5111927;28;20088;-34
2024/01/15 02:47:30;;;;;;;1.90;0.55;;;21.70;43.10;;;;;;5104178;28;20109;-34
2024/01/15 02:49:57;;;;;;;1.35;0.60;;;21.70;43.20;;;;;;5107524;28;20028;-32
2024/01/15 02:52:24;;;;;;;;;;;21.70;43.20;;;;;;5107639;28;20031;-31
2024/01/15 02:54:51;;;;;;;1.35;0.82;;;21.70;43.70;;;;;;5109587;28;19912;-35
2024/01/15 02:57:17;;;;;;;2.55;0.63;;;21.70;43.40;;;;;;5109984;28;20023;-34
2024/01/15 02:59:44;;;;;;;2.63;0.90;;;21.80;43.40;;;;;;5114393;28;20046;-35
2024/01/15 03:02:11;;;;;;;;;;;21.70;43.30;;;;;;5118336;28;20040;-35
2024/01/15 03:04:43;;;;;;;2.00;0.70;;;21.70;43.40;;;;;;5117622;28;19933;-35
2024/01/15 03:07:09;;;;;;;0.75;0.50;;;21.70;43.40;;;;;;5117547;27;20039;-31
2024/01/15 03:09:36;;;;;;;1.05;0.70;;;21.70;43.30;;;;;;5118019;28;20028;-36
2024/01/15 03:12:05;;;;;;;0.88;0.52;;;21.70;43.30;;;;;;5117114;28;20586;-35
2024/01/15 03:14:32;;;;;;;0.93;0.77;;;21.70;43.20;;;;;;5117160;28;20028;-35
2024/01/15 03:17:00;;;;;;;1.70;0.70;;;21.70;43.30;;;;;;5115868;27;20062;-36
2024/01/15 03:19:27;;;;;;;0.80;0.80;;;21.70;43.30;;;;;;5117113;28;20055;-32
2024/01/15 03:21:54;;;;;;;1.90;0.80;;;21.70;43.30;;;;;;5113314;28;20097;-35
2024/01/15 03:24:22;;;;;;;1.05;0.70;;;21.70;43.20;;;;;;5110198;28;20020;-37
2024/01/15 03:26:49;;;;;;;0.85;0.75;;;21.70;43.10;;;;;;5114882;28;20075;-36
2024/01/15 03:29:16;;;;;;;1.65;0.63;;;21.80;43.20;;;;;;5122211;28;20035;-35
2024/01/15 03:31:43;;;;;;;1.77;0.80;;;21.80;43.10;;;;;;5124473;28;20031;-34
2024/01/15 03:34:09;;;;;;;1.40;0.80;;;21.80;43.30;;;;;;5116985;28;20028;-33
2024/01/15 03:36:36;;;;;;;1.25;0.80;;;21.70;43.20;;;;;;5111426;28;20024;-36
2024/01/15 03:39:03;;;;;;;2.38;0.93;;;21.70;43.20;;;;;;5112191;28;20020;-33
2024/01/15 03:41:30;;;;;;;1.52;0.95;;;21.70;43.20;;;;;;5117705;28;20089;-34
2024/01/15 03:43:58;;;;;;;1.98;0.90;;;21.80;43.00;;;;;;5122270;28;20016;-37
2024/01/15 03:46:25;;;;;;;1.08;0.70;;;21.80;43.00;;;;;;5112294;28;20028;-37
2024/01/15 03:48:51;;;;;;;3.30;1.00;;;21.80;43.10;;;;;;5112226;28;20028;-37
2024/01/15 03:51:18;;;;;;;1.88;0.90;;;21.70;43.10;;;;;;5115309;28;20024;-35
2024/01/15 03:53:45;;;;;;;1.95;0.88;;;21.70;43.40;;;;;;5108604;28;20024;-35
2024/01/15 03:56:12;;;;;;;0.97;0.87;;;21.70;43.40;;;;;;5110480;28;20055;-34
2024/01/15 03:58:39;;;;;;;1.13;1.02;;;21.80;43.20;;;;;;5111298;28;20338;-34
2024/01/15 04:01:11;;;;;;;1.15;0.90;;;21.80;43.20;;;;;;5115768;28;20040;-34
2024/01/15 04:03:38;;;;;;;1.45;1.10;;;21.80;43.30;;;;;;5115903;28;20032;-37
2024/01/15 04:06:05;;;;;;;1.20;0.85;;;21.70;43.30;;;;;;5111716;28;20038;-34
2024/01/15 04:08:31;;;;;;;;;;;21.70;43.40;;;;;;5108948;28;20570;-36
2024/01/15 04:10:58;;;;;;;1.42;1.20;;;21.70;43.50;;;;;;5109886;28;19919;-35
2024/01/15 04:13:25;;;;;;;1.48;1.00;;;21.80;43.90;;;;;;5110990;28;20028;-37
2024/01/15 04:15:51;;;;;;;1.48;1.20;;;21.80;43.30;;;;;;5111627;28;20108;-37
2024/01/15 04:18:18;;;;;;;2.97;1.30;;;21.80;43.30;;;;;;5115793;28;20046;-34
2024/01/15 04:20:45;;;;;;;1.42;1.23;;;21.80;43.40;;;;;;5111841;27;20031;-35
2024/01/15 04:23:12;;;;;;;1.40;1.07;;;21.70;43.60;;;;;;5109741;28;20030;-33
2024/01/15 04:25:42;;;;;;;1.52;1.15;;;21.70;43.60;;;;;;5114850;28;20260;-32
2024/01/15 04:28:09;;;;;;;2.03;1.10;;;21.80;43.30;;;;;;5114202;28;20059;-33
2024/01/15 04:30:35;;;;;;;1.25;1.13;;;21.80;43.20;;;;;;5113802;28;20024;-34
2024/01/15 04:33:02;;;;;;;1.40;1.20;;;21.80;43.20;;;;;;5107186;28;20115;-33
2024/01/15 04:35:30;;;;;;;1.85;1.02;;;21.80;43.20;;;;;;5107945;28;20028;-34
2024/01/15 04:37:57;;;;;;;2.25;1.20;;;21.70;43.10;;;;;;5112214;27;20028;-37
2024/01/15 04:40:23;;;;;;;1.13;1.00;;;21.70;43.10;;;;;;5114313;28;20023;-31
2024/01/15 04:42:50;;;;;;;1.10;0.85;;;21.80;43.10;;;;;;5115253;28;20039;-35
2024/01/15 04:45:18;;;;;;;1.75;1.17;;;21.80;43.00;;;;;;5116603;28;20084;-35
2024/01/15 04:47:45;;;;;;;1.67;1.02;;;21.80;43.00;;;;;;5109580;28;20040;-32
2024/01/15 04:50:11;;;;;;;1.65;1.30;;;21.80;43.00;;;;;;5119696;28;20024;-33
2024/01/15 04:52:38;;;;;;;1.40;1.10;;;21.70;43.00;;;;;;5110369;28;20078;-35
2024/01/15 04:55:04;;;;;;;1.70;1.20;;;21.70;43.00;;;;;;5112335;28;20083;-35
2024/01/15 04:57:31;;;;;;;1.60;1.17;;;21.70;43.00;;;;;;5115255;28;20031;-36
2024/01/15 04:59:57;;;;;;;1.83;1.13;;;21.80;42.90;;;;;;5112458;28;20481;-33
2024/01/15 05:02:23;;;;;;;1.45;1.10;;;21.80;42.90;;;;;;5112184;28;20035;-33
2024/01/15 05:04:50;;;;;;;3.70;1.20;;;21.80;42.90;;;;;;5105185;28;20508;-32
2024/01/15 05:07:16;;;;;;;1.33;0.93;;;21.70;42.90;;;;;;5113193;28;20047;-36
2024/01/15 05:09:42;;;;;;;3.65;1.02;;;21.70;43.00;;;;;;5109679;28;20023;-35
2024/01/15 05:12:08;;;;;;;2.28;1.30;;;21.70;43.10;;;;;;5112239;28;20035;-34
2024/01/15 05:14:34;;;;;;;1.38;1.10;;;21.80;43.00;;;;;;5107758;28;20028;-33
2024/01/15 05:17:00;;;;;;;2.58;1.17;;;21.80;43.00;;;;;;5112341;28;20150;-33
2024/01/15 05:19:27;;;;;;;3.15;1.15;;;21.80;43.00;;;;;;5109621;28;20049;-35
2024/01/15 05:21:53;;;;;;;1.48;1.15;;;21.80;43.40;;;;;;5112440;28;20113;-37
2024/01/15 05:24:19;;;;;;;1.50;1.08;;;21.80;43.40;;;;;;5114422;28;20090;-36
2024/01/15 05:26:45;;;;;;;1.83;1.00;;;21.70;43.00;;;;;;5113852;28;20523;-33
2024/01/15 05:29:11;;;;;;;2.70;1.02;;;21.80;42.90;;;;;;5113784;27;20062;-36
2024/01/15 05:31:37;;;;;;;3.35;0.90;;;21.80;42.90;;;;;;5109953;27;20126;-35
2024/01/15 05:34:03;;;;;;;9.63;1.23;;;21.80;42.90;;;;;;5111607;28;20024;-34
2024/01/15 05:36:29;;;;;;;4.18;0.90;;;21.80;43.00;;;;;;5106732;28;20031;-35
2024/01/15 05:38:56;;;;;;;1.40;1.10;;;21.80;43.20;;;;;;5107713;28;20051;-37
2024/01/15 05:41:22;;;;;;;2.53;1.02;;;21.80;43.50;;;;;;5112027;28;20051;-37
2024/01/15 05:43:48;;;;;;;1.50;1.20;;;21.80;43.20;;;;;;5113075;28;20016;-36
2024/01/15 05:46:15;;;;;;;1.67;1.23;;;21.80;43.10;;;;;;5113467;28;20023;-35
2024/01/15 05:48:41;;;;;;;1.50;1.40;;;21.80;43.00;;;;;;5112114;28;20028;-36
2024/01/15 05:51:07;;;;;;;2.10;1.35;;;21.80;43.20;;;;;;5116228;28;20069;-34
2024/01/15 05:53:33;;;;;;;2.22;1.20;;;21.80;43.10;;;;;;5113365;28;20043;-35
2024/01/15 05:56:01;;;;;;;2.97;1.08;;;21.70;43.10;;;;;;5111214;28;20130;-36
2024/01/15 05:58:26;;;;;;;;;;;21.80;43.10;;;;;;5105700;28;20020;-35
2024/01/15 06:00:53;;;;;;;2.38;1.38;;;21.80;42.90;;;;;;5104709;28;19974;-35
2024/01/15 06:03:19;;;;;;;1.30;1.20;;;21.80;42.90;;;;;;5108027;28;20023;-37
2024/01/15 06:05:45;;;;;;;1.75;1.20;;;21.80;43.00;;;;;;5119834;28;20020;-36
2024/01/15 06:08:11;;;;;;;2.00;1.25;;;21.80;43.10;;;;;;5116775;28;20020;-31
2024/01/15 06:10:37;;;;;;;1.27;1.17;;;21.80;43.00;;;;;;5119853;28;20765;-35
2024/01/15 06:13:03;;;;;;;1.35;1.15;;;21.80;42.90;;;;;;5116395;28;20036;-36
2024/01/15 06:15:29;;;;;;;1.92;1.38;;;21.80;42.90;;;;;;5118270;28;20019;-32
2024/01/15 06:17:55;;;;;;;2.10;1.33;;;21.80;42.90;;;;;;5112837;28;20430;-34
2024/01/15 06:20:22;;;;;;;1.30;1.20;;;21.80;42.80;;;;;;5116373;28;20024;-37
2024/01/15 06:22:48;;;;;;;1.67;1.40;;;21.80;43.00;;;;;;5112783;28;20026;-33
2024/01/15 06:25:14;;;;;;;1.30;1.20;;;21.80;43.00;;;;;;5112982;28;20051;-33
2024/01/15 06:27:40;;;;;;;1.27;1.17;;;21.80;42.90;;;;;;5112622;28;20060;-34
2024/01/15 06:30:07;;;;;;;1.73;1.20;;;21.90;42.90;;;;;;5114991;28;20036;-35
2024/01/15 06:32:33;;;;;;;2.00;1.10;;;21.80;43.50;;;;;;5117815;28;20083;-34
2024/01/15 06:34:59;;;;;;;1.60;1.10;;;21.80;42.80;;;;;;5116821;28;20032;-35
2024/01/15 06:37:25;;;;;;;1.52;1.17;;;21.80;42.90;;;;;;5116201;28;20031;-34
2024/01/15 06:39:51;;;;;;;2.00;1.50;;;21.80;43.00;;;;;;5117133;28;20602;-34
2024/01/15 06:42:18;;;;;;;1.63;1.30;;;21.80;42.90;;;;;;5117043;28;20063;-35
2024/01/15 06:44:44;;;;;;;1.10;1.00;;;21.90;42.90;;;;;;5116956;28;20912;-33
2024/01/15 06:47:10;;;;;;;2.25;1.30;;;21.80;42.90;;;;;;5116189;28;20039;-35
2024/01/15 06:49:36;;;;;;;2.43;0.97;;;21.80;42.90;;;;;;5116910;28;20028;-30
2024/01/15 06:52:03;;;;;;;1.80;1.38;;;21.80;42.90;;;;;;5121288;28;20912;-35
2024/01/15 06:54:29;;;;;;;1.73;1.25;;;21.80;42.90;;;;;;5118306;27;20077;-35
2024/01/15 06:56:55;;;;;;;2.00;1.20;;;21.80;42.80;;;;;;5114050;28;20021;-37
2024/01/15 06:59:21;;;;;;;1.70;1.30;;;21.90;42.90;;;;;;5114986;27;20100;-34
2024/01/15 07:01:47;;;;;;;1.73;1.30;;;21.80;42.80;;;;;;5114434;28;20091;-32
2024/01/15 07:04:13;;;;;;;1.90;1.45;;;21.80;42.80;;;;;;5119706;28;20133;-32
2024/01/15 07:06:39;;;;;;;1.40;1.30;;;21.80;42.80;;;;;;5112571;28;20032;-36
2024/01/15 07:09:06;;;;;;;2.20;1.30;;;21.80;42.90;;;;;;5121197;28;20031;-35
2024/01/15 07:11:32;;;;;;;2.17;1.30;;;21.80;42.80;;;;;;5119192;28;20032;-37
2024/01/15 07:13:58;;;;;;;2.10;1.30;;;21.90;42.80;;;;;;5114831;28;20268;-33
2024/01/15 07:16:24;;;;;;;1.45;1.25;;;21.80;42.80;;;;;;5116936;28;20027;-34
2024/01/15 07:18:50;;;;;;;2.28;1.30;;;21.80;42.80;;;;;;5116014;28;20073;-35
2024/01/15 07:21:16;;;;;;;3.25;1.17;;;21.80;42.80;;;;;;5119710;28;20142;-35
2024/01/15 07:23:42;;;;;;;2.00;1.23;;;21.80;42.80;;;;;;5115152;28;20035;-37
2024/01/15 07:26:09;;;;;;;1.63;1.20;;;21.80;42.70;;;;;;5114726;28;20035;-35
2024/01/15 07:28:35;;;;;;;1.45;1.30;;;21.90;42.80;;;;;;5117313;27;21069;-34
2024/01/15 07:31:02;;;;;;;1.77;1.40;;;21.80;42.70;;;;;;5116310;28;20062;-36
2024/01/15 07:33:28;;;;;;;;;;;21.80;42.70;;;;;;5114841;28;20032;-36
2024/01/15 07:35:54;;;;;;;1.75;1.30;;;21.80;42.80;;;;;;5117191;28;19914;-36
2024/01/15 07:38:21;;;;;;;1.40;1.30;;;21.80;42.90;;;;;;5116677;28;20028;-31
2024/01/15 07:40:49;;;;;;;1.48;1.10;;;21.80;42.80;;;;;;5115075;28;20038;-31
2024/01/15 07:43:15;;;;;;;1.85;1.42;;;21.90;42.80;;;;;;5111278;28;20039;-36
2024/01/15 07:45:41;;;;;;;1.60;1.40;;;21.80;42.70;;;;;;5110624;28;20552;-32
2024/01/15 07:48:07;;;;;;;1.65;1.30;;;21.80;42.80;;;;;;5108992;28;20398;-33
2024/01/15 07:50:34;;;;;;;2.03;1.30;;;21.80;43.40;;;;;;5115878;28;20038;-36
2024/01/15 07:53:00;;;;;;;2.35;1.50;;;21.80;42.70;;;;;;5118028;28;20096;-33
2024/01/15 07:55:26;;;;;;;2.05;1.45;;;21.90;42.70;;;;;;5109790;28;20035;-35
2024/01/15 07:57:53;;;;;;;1.67;1.35;;;21.90;42.70;;;;;;5113298;28;20530;-34
2024/01/15 08:00:19;;;;;;;1.40;1.30;;;21.80;42.70;;;;;;5117228;28;20135;-33
2024/01/15 08:02:45;;;;;;;1.80;1.40;;;21.80;42.80;;;;;;5118255;28;20180;-37
2024/01/15 08:05:12;;;;;;;1.88;1.20;;;21.80;42.80;;;;;;5116658;28;20028;-33
2024/01/15 08:07:38;;;;;;;1.50;1.40;;;21.80;42.70;;;;;;5116510;28;20028;-35
2024/01/15 08:10:04;;;;;;;1.40;1.20;;;21.90;42.70;;;;;;5112768;28;20027;-34
2024/01/15 08:12:30;;;;;;;2.13;1.52;;;21.80;42.70;;;;;;5128767;27;20019;-34
2024/01/15 08:14:56;;;;;;;1.75;1.30;;;21.80;42.70;;;;;;5107364;27;20437;-37
2024/01/15 08:17:27;;;;;;;1.42;1.15;;;21.80;42.70;;;;;;5108255;28;20115;-34
2024/01/15 08:19:54;;;;;;;1.88;1.38;;;21.80;42.80;;;;;;5116187;28;20050;-33
2024/01/15 08:22:20;;;;;;;2.10;1.48;;;21.80;42.70;;;;;;5117257;28;20551;-34
2024/01/15 08:24:46;;;;;;;2.45;1.55;;;21.90;42.70;;;;;;5110182;28;20057;-36
2024/01/15 08:27:12;;;;;;;1.83;1.50;;;21.80;42.70;;;;;;5109935;28;20107;-34
2024/01/15 08:29:38;;;;;;;3.05;1.45;;;21.80;42.80;;;;;;5110513;28;20059;-31
2024/01/15 08:32:05;;;;;;;1.75;1.40;;;21.80;42.90;;;;;;5108337;28;20134;-35
2024/01/15 08:34:31;;;;;;;1.77;1.50;;;21.80;42.80;;;;;;5110485;28;20091;-36
2024/01/15 08:36:57;;;;;;;1.75;1.65;;;21.90;42.80;;;;;;5112056;28;20034;-29
2024/01/15 08:39:23;;;;;;;1.65;1.20;;;21.90;42.80;;;;;;5114950;28;20035;-35
2024/01/15 08:41:49;;;;;;;1.60;1.50;;;21.90;42.90;;;;;;5113126;28;20096;-32
2024/01/15 08:44:16;;;;;;;1.50;1.40;;;21.80;42.80;;;;;;5112203;28;20039;-33
2024/01/15 08:46:42;;;;;;;2.10;1.45;;;21.80;42.90;;;;;;5108242;28;20039;-34
2024/01/15 08:49:08;;;;;;;1.30;1.20;;;21.80;42.80;;;;;;5109615;28;20547;-36
2024/01/15 08:51:34;;;;;;;2.08;1.42;;;21.90;42.80;;;;;;5111041;28;20036;-35
2024/01/15 08:54:00;;;;;;;2.10;1.50;;;21.90;42.80;;;;;;5111611;28;20102;-35
2024/01/15 08:56:27;;;;;;;2.13;1.35;;;21.80;42.80;;;;;;5108186;28;20036;-36
2024/01/15 08:58:53;;;;;;;1.60;1.20;;;21.80;42.90;;;;;;5111232;28;20023;-33
2024/01/15 09:01:19;;;;;;;2.05;1.42;;;21.80;42.90;;;;;;5108920;28;20123;-36
2024/01/15 09:03:46;;;;;;;2.20;1.40;;;21.80;42.80;;;;;;5109084;28;20032;-33
2024/01/15 09:06:12;;;;;;;2.40;1.20;;;21.90;42.80;;;;;;5110428;28;20032;-35
2024/01/15 09:08:38;;;;;;;1.77;1.27;;;21.90;42.80;;;;;;5106685;28;20181;-35
2024/01/15 09:11:04;;;;;;;2.28;1.70;;;21.80;42.80;;;;;;5112706;28;20028;-32
2024/01/15 09:13:30;;;;;;;3.28;1.38;;;21.80;42.80;;;;;;5119292;28;20089;-35
2024/01/15 09:15:57;;;;;;;2.17;1.20;;;21.80;43.60;;;;;;5105878;28;20032;-36
2024/01/15 09:18:23;;;;;;;2.13;1.45;;;21.80;42.90;;;;;;5113154;28;20032;-36
2024/01/15 09:20:50;;;;;;;1.40;1.20;;;21.90;42.90;;;;;;5108575;28;20069;-35
2024/01/15 09:23:16;;;;;;;2.53;1.63;;;21.90;42.90;;;;;;5107855;28;20043;-35
2024/01/15 09:25:42;;;;;;;2.10;1.52;;;21.80;42.80;;;;;;5110386;28;20031;-34
2024/01/15 09:28:08;;;;;;;1.65;1.42;;;21.80;42.90;;;;;;5107410;28;20047;-34
2024/01/15 09:30:34;;;;;;;1.80;1.38;;;21.80;42.90;;;;;;5108558;28;20046;-37
2024/01/15 09:33:00;;;;;;;2.22;1.50;;;21.80;42.90;;;;;;5106609;27;20028;-35
2024/01/15 09:35:26;;;;;;;2.03;1.50;;;21.90;42.80;;;;;;5107874;28;20047;-32
2024/01/15 09:37:52;;;;;;;1.80;1.42;;;21.90;42.80;;;;;;5111200;28;20038;-34
2024/01/15 09:40:18;;;;;;;2.70;1.27;;;21.80;42.80;;;;;;5107840;28;20032;-35
2024/01/15 09:42:45;;;;;;;1.73;1.23;;;21.80;42.90;;;;;;5112557;28;20057;-33
2024/01/15 09:45:11;;;;;;;3.08;1.38;;;21.80;42.80;;;;;;5110038;28;20484;-35
2024/01/15 09:47:38;;;;;;;2.13;1.60;;;21.90;42.80;;;;;;5114366;28;20049;-34
2024/01/15 09:50:04;;;;;;;2.45;1.58;;;21.90;42.70;;;;;;5108432;28;20353;-35
2024/01/15 09:52:34;;;;;;;4.00;1.40;;;21.90;42.80;;;;;;5114851;28;20883;-37
2024/01/15 09:55:00;;;;;;;2.45;1.60;;;21.90;42.90;;;;;;5116158;28;21565;-35
2024/01/15 09:57:26;;;;;;;2.93;1.70;;;21.80;42.90;;;;;;5121449;28;20024;-34
2024/01/15 09:59:53;;;;;;;3.55;1.60;;;21.80;43.10;;;;;;5115092;28;20053;-34
2024/01/15 10:02:19;;;;;;;2.30;1.50;;;21.90;43.00;;;;;;5117696;28;20039;-31
2024/01/15 10:04:45;;;;;;;2.78;1.70;;;21.90;42.90;;;;;;5119612;28;20070;-34
2024/01/15 10:07:15;;;;;;;2.17;1.55;;;21.90;42.90;;;;;;5114844;28;20401;-35
2024/01/15 10:09:41;;;;;;;3.75;1.77;;;21.90;43.00;;;;;;5115631;28;20051;-34
2024/01/15 10:12:07;;;;;;;2.05;1.48;;;21.80;42.90;;;;;;5117507;28;20035;-33
2024/01/15 10:14:33;;;;;;;1.88;1.63;;;21.80;43.00;;;;;;5117411;28;20024;-33
2024/01/15 10:17:00;;;;;;;2.00;1.55;;;21.90;42.90;;;;;;5132831;27;20255;-35
2024/01/15 10:19:27;;;;;;;2.00;1.60;;;21.90;43.00;;;;;;5112916;28;20126;-32
2024/01/15 10:21:53;;;;;;;2.55;1.67;;;21.90;43.00;;;;;;5112659;28;20311;-34
2024/01/15 10:24:19;;;;;;;1.65;1.40;;;21.90;43.10;;;;;;5115164;28;20028;-34
2024/01/15 10:26:45;;;;;;;2.05;1.70;;;21.80;43.10;;;;;;5113697;28;20043;-37
2024/01/15 10:29:11;;;;;;;2.33;1.52;;;21.90;43.10;;;;;;5116627;28;20028;-35
2024/01/15 10:31:38;;;;;;;2.80;1.70;;;21.90;42.90;;;;;;5118837;28;20028;-36
2024/01/15 10:34:15;;;;;;;2.13;1.60;;;21.90;42.90;;;;;;5114803;28;20054;-36
2024/01/15 10:36:41;;;;;;;2.72;1.60;;;21.90;43.00;;;;;;5115864;28;20028;-35
2024/01/15 10:39:07;;;;;;;1.95;1.60;;;21.80;42.90;;;;;;5117993;28;20027;-34
2024/01/15 10:41:34;;;;;;;1.55;1.45;;;21.90;43.00;;;;;;5118207;28;20044;-35
2024/01/15 10:44:00;;;;;;;2.20;1.70;;;21.90;42.90;;;;;;5117708;28;20095;-36
2024/01/15 10:46:26;;;;;;;2.97;1.73;;;21.90;42.90;;;;;;5113531;28;20107;-34
2024/01/15 10:48:53;;;;;;;1.95;1.58;;;21.90;42.90;;;;;;5112515;28;20028;-32
2024/01/15 10:51:19;;;;;;;2.08;1.70;;;21.90;42.90;;;;;;5117152;28;20039;-36
2024/01/15 10:53:46;;;;;;;3.05;1.70;;;21.80;43.00;;;;;;5110959;28;20023;-34
2024/01/15 10:56:12;;;;;;;1.83;1.52;;;21.90;43.30;;;;;;5111794;28;20114;-33
2024/01/15 10:58:39;;;;;;;2.33;1.65;;;21.90;43.10;;;;;;5111988;28;20051;-35
2024/01/15 11:01:06;;;;;;;1.50;1.40;;;21.90;43.10;;;;;;5110429;28;20032;-31
2024/01/15 11:03:32;;;;;;;2.25;1.60;;;21.90;43.10;;;;;;5110821;28;20032;-37
2024/01/15 11:05:59;;;;;;;2.35;1.60;;;21.90;43.10;;;;;;5110386;28;20559;-35
2024/01/15 11:08:25;;;;;;;2.20;1.58;;;21.80;43.10;;;;;;5110649;28;20032;-37
2024/01/15 11:10:54;;;;;;;3.50;1.70;;;21.90;43.00;;;;;;5111807;28;20030;-36
2024/01/15 11:13:21;;;;;;;2.70;2.20;;;21.90;43.00;;;;;;5109400;28;20415;-40
2024/01/15 11:16:09;;;;;;;2.15;1.60;;;21.90;43.00;;;;;;5110857;28;20034;-35
2024/01/15 11:18:43;;;;;;;2.72;1.40;;;21.90;43.10;;;;;;5111012;28;20066;-32
2024/01/15 11:23:48;;;;;;;2.10;1.58;;;21.90;43.40;;;;;;5115561;28;20034;-32
2024/01/15 11:26:37;;;;;;;1.95;1.70;;;21.90;43.20;;;;;;5115695;28;20032;-35
2024/01/15 11:29:07;;;;;;;2.33;1.88;;;21.90;43.10;;;;;;5098892;28;20036;-35
2024/01/15 11:31:40;;;;;;;2.35;1.60;;;21.90;43.10;;;;;;5115160;28;20488;-36
2024/01/15 11:34:09;;;;;;;2.10;1.40;;;21.90;43.20;;;;;;5115815;28;20015;-33
2024/01/15 11:36:54;;;;;;;2.17;1.52;;;21.80;43.10;;;;;;5116034;28;20030;-34
2024/01/15 11:39:32;;;;;;;1.75;1.35;;;21.90;43.10;;;;;;5115030;28;20135;-33
2024/01/15 11:42:01;;;;;;;3.47;1.50;;;22.00;43.00;;;;;;5115484;28;20036;-37
2024/01/15 11:44:27;;;;;;;2.17;1.80;;;21.90;43.00;;;;;;5119169;28;20131;-36
2024/01/15 11:47:06;;;;;;;5.18;2.05;;;21.90;43.00;;;;;;5121610;28;20031;-33
2024/01/15 11:50:01;;;;;;;2.30;1.45;;;21.90;43.10;;;;;;5122149;28;20023;-36
2024/01/15 11:52:33;;;;;;;3.47;1.63;;;21.90;43.10;;;;;;5111426;27;20027;-36
2024/01/15 11:55:15;;;;;;;1.92;1.50;;;21.90;43.00;;;;;;5117703;28;20039;-36
2024/01/15 11:57:45;;;;;;;2.55;1.70;;;22.00;43.00;;;;;;5112952;28;20047;-34
2024/01/15 12:00:12;;;;;;;2.15;1.55;;;21.90;43.00;;;;;;5119317;27;20122;-37
2024/01/15 12:02:41;;;;;;;1.90;1.60;;;21.90;43.00;;;;;;5118034;28;20036;-34
2024/01/15 12:05:12;;;;;;;3.75;1.60;;;21.80;43.00;;;;;;5120123;28;20032;-35
2024/01/15 12:07:39;;;;;;;2.45;1.80;;;21.90;43.10;;;;;;5120674;28;20054;-32
2024/01/15 12:10:12;;;;;;;1.92;1.63;;;21.90;43.00;;;;;;5117417;28;20103;-34
2024/01/15 12:12:47;;;;;;;4.00;1.60;;;21.90;43.00;;;;;;5114127;28;20035;-36
2024/01/15 12:15:14;;;;;;;1.95;1.60;;;21.90;43.10;;;;;;5120661;28;20031;-35
2024/01/15 12:17:40;;;;;;;2.30;1.63;;;21.90;43.70;;;;;;5101190;28;20027;-33
2024/01/15 12:20:06;;;;;;;2.60;1.90;;;21.90;43.80;;;;;;5119557;28;20035;-36
2024/01/15 12:22:33;;;;;;;2.23;1.80;;;21.90;43.60;;;;;;5122060;28;20043;-35
2024/01/15 12:24:59;;;;;;;1.93;1.60;;;21.90;43.20;;;;;;5117948;28;20035;-37
2024/01/15 12:27:25;;;;;;;1.83;1.63;;;22.00;43.20;;;;;;5113859;28;20437;-36
2024/01/15 12:29:53;;;;;;;2.67;1.80;;;21.90;43.20;;;;;;5120564;28;20020;-35
2024/01/15 12:32:21;;;;;;;2.35;1.75;;;21.90;43.20;;;;;;5121414;28;20095;-36
2024/01/15 12:34:49;;;;;;;2.42;1.80;;;21.90;43.20;;;;;;5121073;28;20028;-35
2024/01/15 12:37:15;;;;;;;2.00;1.80;;;21.90;43.20;;;;;;5119956;28;20028;-33
2024/01/15 12:39:44;;;;;;;3.60;1.70;;;21.90;43.10;;;;;;5117741;27;20031;-35
2024/01/15 12:42:10;;;;;;;2.50;1.90;;;21.90;43.00;;;;;;5120275;28;20050;-34
2024/01/15 12:44:37;;;;;;;2.33;1.80;;;21.90;43.10;;;;;;5120111;28;20055;-34
2024/01/15 12:47:05;;;;;;;3.70;1.48;;;21.90;43.10;;;;;;5121713;28;20287;-33
2024/01/15 12:49:31;;;;;;;3.45;1.80;;;21.80;43.10;;;;;;5122157;28;20059;-34
2024/01/15 12:51:57;;;;;;;2.03;1.70;;;21.90;43.10;;;;;;5118502;27;20039;-37